Terminal Aerodrome Forecast
Issued by NWS San Angelo, TX

Home | Current Version | Previous Version | Text Only | Print | Product List | Glossary On
Versions: 1 2 3 4 5 6 7 8 9 10 11 12 13 14 15 16 17 18 19 20
644
FTUS44 KSJT 240520
TAFSJT
TAF
KSJT 240520Z 2406/2506 17011KT P6SM SCT015
     FM240700 17010KT P6SM OVC015
     FM241700 18011KT P6SM SCT035=

USA.gov is the U.S. government's official web portal to all federal, state and local government web resources and services.